Printer image icon. Send To Printer
           

                RAOB DATA MANUAL QUALITY CONTROL (QC) REPORT
                                  MEXICAN
                       From 20140301 through 20140331

 ___DATE___ HOUR REASN DETAILS...

76225/CUU
   20140306  12Z 10142 10142; Ground equip problem..
   20140326  00Z 10158 10158; Flight equip problems..

2 records found

76256/GYM
   20140303  12Z 10142 10142.
   20140304  12Z 10142 Ground equipment failure...10142
   20140305  12Z 10142 Ground equipment failure...10142
   20140306  12Z 10142 10142; Ground equip problem..
   20140307  12Z 10142 10142; Ground equip problems..
   20140311  12Z 10142 10142; Ground equip problem.
   20140312  12Z 10142 10142; Ground equip problem.
   20140315  12Z 10142 Ground equipment failure...10142
   20140317  12Z 10142 10142
   20140318  12Z 10142 10142
   20140319  12Z 10142 Ground equipment failure...10142.
   20140321  12Z 10142 10142...ground equipment failure
   20140322  12Z 10142 10142...ground equipment failure.
   20140323  12Z 10142 10142...ground equipment failure.
   20140324  12Z 10142 10142...ground equipment failure
   20140325  12Z 10142 10142...ground equipment failure
   20140326  12Z 10142 10142...ground equipment failure
   20140327  12Z 10142 Ground equipment failure...code 10142.
   20140328  12Z 10142 Ground equipment failure...code 10142.

19 records found

76394/MTY
   20140308  00Z DELET Deleted spurious winds 148-137 mb
   20140321  12Z DELET Purged winds 902-541 mb...too fast...purged temp/rh 173
                        mb to top...spurious

2 records found

76458/MZT
   20140319  00Z 10142 10142...ground equipment failure

1 record found

76526/ZAC
   20140327  12Z DELET Deleted 33 mb temp...approx 9 K too warm...and del wind
                       s above 32 mb...suspect changes in speed.

1 record found

76595/CUN
   20140316  12Z 10142 Ground equipment failure...10142

1 record found



76644/MID
   20140318  12Z DELET Purged temps 1012-650mb...purged all hgts...low/cold
   20140323  12Z 10159 10159.
   20140331  12Z 10142 10142; ground equip problem..

3 records found

76654/MZL
   20140301  00Z 10142 10142; Ground equip problems..
   20140301  12Z 10142 10142...ground equipment failure
   20140303  00Z 10142 10142
   20140303  12Z 10142 10142.
   20140304  00Z 10142 10142
   20140304  12Z 10142 Ground equipment failure...10142
   20140305  00Z 10142 10142.
   20140305  12Z 10142 Ground equipment failure...10142
   20140306  00Z 10142 10142.
   20140306  12Z 10142 10142; Ground equip problem..
   20140307  00Z 10142 Ground equipment failure...10142
   20140307  12Z 10142 10142; Ground equip problems..
   20140308  00Z 10142 Ground equipment failure...10142
   20140308  12Z 10142 10142; Ground equip problems..
   20140310  00Z 10142 10142...ground equipment failure
   20140310  12Z 10142 10142; Ground equip problems.
   20140311  12Z 10142 10142; Ground equip problems.
   20140315  00Z 10142 Ground equipment failure...10142
   20140315  12Z 10142 Ground equipment failure...10142
   20140316  00Z 10142 10142; ground equip problems..
   20140317  00Z 10142 10142; Ground equip problems..
   20140317  12Z 10142 10142
   20140318  00Z 10142 10142...ground equipment failure
   20140318  12Z 10142 10142
   20140319  00Z 10142 10142...ground equipment failure
   20140319  12Z 10142 Ground equipment failure...10142.
   20140320  00Z 10142 10142...ground equipment failure
   20140320  12Z 10142 Ground equipment failure...10142.
   20140321  00Z 10142 10142
   20140321  12Z 10142 10142...ground equipment failure
   20140329  12Z DELET Purged all wind data...erratic.

31 records found

76679/MEX
   20140301  00Z DELET Purge hts/temps/humidity.. high and warm then cold..
   20140311  00Z 10142 10142

2 records found

76692/HYY
   20140301  00Z 10158 10158; Flight equip problems..
   20140301  12Z 10158 10158...flight equipment failure
   20140302  00Z 10158 10158


   20140303  00Z 10158 10158
   20140303  12Z 10158 10158.
   20140304  00Z 10158 10158
   20140304  12Z 10158 Flight equipment failure...10158
   20140305  00Z 10158 10158.
   20140306  00Z 10158 10158.
   20140306  12Z 10158 10158; Flight equip problem..
   20140307  00Z 10158 Flight equipment failure...10158
   20140307  12Z 10158 10158; Flight equip problems..
   20140308  00Z 10158 Flight equipment failure...10158
   20140308  12Z 10158 10158; Flight equip problems..
   20140309  00Z 10158 10158...flight equipment failure
   20140309  12Z 10158 10158; Flight equip problems..
   20140310  00Z 10158 10158...flight equipment failure
   20140310  12Z 10158 10158; Flight equip problems.
   20140311  00Z 10158 10158
   20140311  12Z 10158 10158; Flight equip problems.
   20140312  00Z 10158 10158
   20140313  00Z 10158 10158
   20140314  00Z 10158 Flight equipment failure...10158
   20140315  00Z 10158 Flight equipment failure...10158
   20140315  12Z 10158 Flight equipment failure...10158
   20140316  00Z 10158 10158; flight equip problems..
   20140317  00Z 10158 10158; Flight equip problems..
   20140318  00Z 10158 10158...flight equipment failure
   20140319  00Z 10158 10158...flight equipment failure
   20140320  00Z 10158 10158...flight equipment failure
   20140321  00Z 10158 10158
   20140322  00Z 10158 10158
   20140323  00Z 10158 Flight equipment failure...10158
   20140324  00Z 10158 Flight equipment failure...10158
   20140325  00Z 10158 10158; Flight equip problem..
   20140326  00Z 10158 10158; Flight equip problems..
   20140328  00Z 10158 10158...flight equipment failure
   20140329  00Z 10158 10158...flight equipment failure
   20140330  00Z 10158 10158...flight equipment failure.
   20140331  00Z 10158 10158...flight equipment failure

40 records found

76743/VHA
   20140321  12Z DELET Purged temp/rh 701-674 mb...super-adiabatic
   20140322  00Z 10142 10142

2 records found

76805/ACA
   20140319  12Z 10158 Flight equipment failure...10158.
   20140324  12Z 10158 10158...flight equipment failure
   20140325  12Z 10158 10158...flight equipment failure
   20140326  12Z 10158 10158...flight equipment failure


   20140327  12Z 10158 Flight equipment failure...code 10158.
   20140328  12Z 10158 Flight equipment failure...code 10158.

6 records found


SELECTED STATIONS WITH NO SDM QC:
  76405/LAP  76612/GDL  76903/TAP


This and related reports are available on the Web at . . .
http://www.nco.ncep.noaa.gov/sib/qap/raobqc/